Terminal Aerodrome Forecast
Issued by NWS

Home | Current Version | Previous Version | Text Only | Print | Product List | Glossary On
Versions: 1 2 3 4 5 6 7 8 9 10 11 12
000
FTUS44 KEPZ 172300
TAFTCS
TAF
KTCS 172333Z 1800/1824 23010G18KT P6SM SCT050 BKN100
     FM180100 28005KT P6SM SCT100
     FM181100 VRB04KT P6SM VCSH SCT050 BKN120
     FM181900 20006KT P6SM SCT050 BKN100=

USA.gov is the U.S. government's official web portal to all federal, state and local government web resources and services.